sensor_id;sensor_type;location;lat;lon;timestamp;pressure;altitude;pressure_sealevel;temperature;humidity
37202;BME280;37799;52.390;6.136;2023-01-29T00:02:17;102951.34;;;2.89;100.00
37202;BME280;37799;52.390;6.136;2023-01-29T00:04:43;102949.97;;;2.76;100.00
37202;BME280;37799;52.390;6.136;2023-01-29T00:07:08;102954.94;;;2.94;100.00
37202;BME280;37799;52.390;6.136;2023-01-29T00:09:34;102947.28;;;3.16;100.00
37202;BME280;37799;52.390;6.136;2023-01-29T00:11:59;102947.31;;;2.95;100.00
37202;BME280;37799;52.390;6.136;2023-01-29T00:14:24;102938.00;;;2.97;100.00
37202;BME280;37799;52.390;6.136;2023-01-29T00:16:51;102932.72;;;2.93;100.00
37202;BME280;37799;52.390;6.136;2023-01-29T00:19:17;102922.41;;;2.91;100.00
37202;BME280;37799;52.390;6.136;2023-01-29T00:21:43;102917.88;;;2.84;100.00
37202;BME280;37799;52.390;6.136;2023-01-29T00:24:09;102922.66;;;2.75;100.00
37202;BME280;37799;52.390;6.136;2023-01-29T00:26:34;102917.19;;;3.11;100.00
37202;BME280;37799;52.390;6.136;2023-01-29T00:29:01;102919.97;;;2.94;100.00
37202;BME280;37799;52.390;6.136;2023-01-29T00:31:27;102923.13;;;2.87;100.00
37202;BME280;37799;52.390;6.136;2023-01-29T00:33:52;102910.59;;;2.95;100.00
37202;BME280;37799;52.390;6.136;2023-01-29T00:36:19;102912.13;;;3.12;100.00
37202;BME280;37799;52.390;6.136;2023-01-29T00:38:45;102911.84;;;3.27;100.00
37202;BME280;37799;52.390;6.136;2023-01-29T00:41:19;102921.88;;;3.22;100.00
37202;BME280;37799;52.390;6.136;2023-01-29T00:44:05;102921.25;;;3.06;100.00
37202;BME280;37799;52.390;6.136;2023-01-29T00:46:49;102914.25;;;3.00;100.00
37202;BME280;37799;52.390;6.136;2023-01-29T00:49:14;102900.25;;;2.92;100.00
37202;BME280;37799;52.390;6.136;2023-01-29T00:51:40;102904.78;;;2.99;100.00
37202;BME280;37799;52.390;6.136;2023-01-29T00:54:05;102902.00;;;2.93;100.00
37202;BME280;37799;52.390;6.136;2023-01-29T00:56:35;102905.09;;;3.29;100.00
37202;BME280;37799;52.390;6.136;2023-01-29T00:59:01;102911.59;;;3.21;100.00
37202;BME280;37799;52.390;6.136;2023-01-29T01:01:27;102907.34;;;3.21;100.00
37202;BME280;37799;52.390;6.136;2023-01-29T01:04:11;102900.66;;;3.49;100.00
37202;BME280;37799;52.390;6.136;2023-01-29T01:06:38;102902.22;;;3.44;100.00
37202;BME280;37799;52.390;6.136;2023-01-29T01:09:05;102901.34;;;3.43;100.00
37202;BME280;37799;52.390;6.136;2023-01-29T01:11:48;102894.50;;;3.20;100.00
37202;BME280;37799;52.390;6.136;2023-01-29T01:14:14;102886.47;;;3.11;100.00
37202;BME280;37799;52.390;6.136;2023-01-29T01:16:39;102880.75;;;3.40;100.00
37202;BME280;37799;52.390;6.136;2023-01-29T01:19:04;102888.91;;;3.08;100.00
37202;BME280;37799;52.390;6.136;2023-01-29T01:21:31;102881.34;;;3.11;100.00
37202;BME280;37799;52.390;6.136;2023-01-29T01:23:56;102885.59;;;3.10;100.00
37202;BME280;37799;52.390;6.136;2023-01-29T01:26:22;102888.81;;;3.27;100.00
37202;BME280;37799;52.390;6.136;2023-01-29T01:28:47;102885.84;;;3.16;100.00
37202;BME280;37799;52.390;6.136;2023-01-29T01:31:12;102885.28;;;3.25;100.00
37202;BME280;37799;52.390;6.136;2023-01-29T01:33:38;102891.81;;;3.39;100.00
37202;BME280;37799;52.390;6.136;2023-01-29T01:36:05;102894.19;;;3.35;100.00
37202;BME280;37799;52.390;6.136;2023-01-29T01:38:35;102901.59;;;3.27;100.00
37202;BME280;37799;52.390;6.136;2023-01-29T01:41:01;102905.13;;;3.31;100.00
37202;BME280;37799;52.390;6.136;2023-01-29T01:43:26;102912.22;;;3.38;100.00
37202;BME280;37799;52.390;6.136;2023-01-29T01:45:51;102916.00;;;3.25;100.00
37202;BME280;37799;52.390;6.136;2023-01-29T01:48:22;102918.91;;;3.34;100.00
37202;BME280;37799;52.390;6.136;2023-01-29T01:50:52;102913.22;;;3.19;100.00
37202;BME280;37799;52.390;6.136;2023-01-29T01:53:28;102911.44;;;3.16;100.00
37202;BME280;37799;52.390;6.136;2023-01-29T01:56:01;102917.13;;;3.32;100.00
37202;BME280;37799;52.390;6.136;2023-01-29T01:58:36;102912.53;;;3.23;100.00
37202;BME280;37799;52.390;6.136;2023-01-29T02:01:05;102913.44;;;3.25;100.00
37202;BME280;37799;52.390;6.136;2023-01-29T02:03:36;102908.47;;;3.28;100.00
37202;BME280;37799;52.390;6.136;2023-01-29T02:06:22;102912.34;;;3.41;100.00
37202;BME280;37799;52.390;6.136;2023-01-29T02:09:13;102917.63;;;3.23;100.00
37202;BME280;37799;52.390;6.136;2023-01-29T02:12:03;102916.25;;;3.31;100.00
37202;BME280;37799;52.390;6.136;2023-01-29T02:14:30;102914.84;;;3.39;100.00
37202;BME280;37799;52.390;6.136;2023-01-29T02:16:58;102917.22;;;3.57;100.00
37202;BME280;37799;52.390;6.136;2023-01-29T02:22:15;102926.19;;;3.23;100.00
37202;BME280;37799;52.390;6.136;2023-01-29T02:25:05;102924.75;;;3.30;100.00
37202;BME280;37799;52.390;6.136;2023-01-29T02:27:57;102918.09;;;3.35;100.00
37202;BME280;37799;52.390;6.136;2023-01-29T02:30:30;102932.38;;;3.29;100.00
37202;BME280;37799;52.390;6.136;2023-01-29T02:35:34;102928.13;;;3.29;100.00
37202;BME280;37799;52.390;6.136;2023-01-29T02:38:18;102934.75;;;3.24;100.00
37202;BME280;37799;52.390;6.136;2023-01-29T02:40:56;102936.06;;;3.37;100.00
37202;BME280;37799;52.390;6.136;2023-01-29T02:48:57;102939.47;;;3.36;100.00
37202;BME280;37799;52.390;6.136;2023-01-29T02:51:55;102931.72;;;3.34;100.00
37202;BME280;37799;52.390;6.136;2023-01-29T02:54:46;102918.09;;;3.35;100.00
37202;BME280;37799;52.390;6.136;2023-01-29T02:57:26;102915.22;;;3.26;100.00
37202;BME280;37799;52.390;6.136;2023-01-29T03:02:43;102920.56;;;3.32;100.00
37202;BME280;37799;52.390;6.136;2023-01-29T03:05:15;102920.50;;;3.31;100.00
37202;BME280;37799;52.390;6.136;2023-01-29T03:07:49;102915.56;;;3.13;100.00
37202;BME280;37799;52.390;6.136;2023-01-29T03:10:25;102906.94;;;3.11;100.00
37202;BME280;37799;52.390;6.136;2023-01-29T03:12:57;102892.53;;;3.13;100.00
37202;BME280;37799;52.390;6.136;2023-01-29T03:15:29;102891.81;;;3.17;100.00
37202;BME280;37799;52.390;6.136;2023-01-29T03:18:08;102877.56;;;3.23;100.00
37202;BME280;37799;52.390;6.136;2023-01-29T03:20:40;102880.78;;;3.18;100.00
37202;BME280;37799;52.390;6.136;2023-01-29T03:23:18;102872.84;;;3.12;100.00
37202;BME280;37799;52.390;6.136;2023-01-29T03:25:50;102872.97;;;3.15;100.00
37202;BME280;37799;52.390;6.136;2023-01-29T03:28:38;102869.16;;;3.04;100.00
37202;BME280;37799;52.390;6.136;2023-01-29T03:31:24;102860.03;;;3.12;100.00
37202;BME280;37799;52.390;6.136;2023-01-29T03:34:15;102862.50;;;3.09;100.00
37202;BME280;37799;52.390;6.136;2023-01-29T03:36:50;102860.66;;;3.05;100.00
37202;BME280;37799;52.390;6.136;2023-01-29T03:39:19;102848.69;;;3.04;100.00
37202;BME280;37799;52.390;6.136;2023-01-29T03:42:03;102846.22;;;3.07;100.00
37202;BME280;37799;52.390;6.136;2023-01-29T03:44:37;102849.22;;;3.19;100.00
37202;BME280;37799;52.390;6.136;2023-01-29T03:47:15;102837.97;;;3.14;100.00
37202;BME280;37799;52.390;6.136;2023-01-29T03:50:06;102839.00;;;3.19;100.00
37202;BME280;37799;52.390;6.136;2023-01-29T03:52:44;102836.53;;;3.22;100.00
37202;BME280;37799;52.390;6.136;2023-01-29T03:57:59;102821.53;;;3.09;100.00
37202;BME280;37799;52.390;6.136;2023-01-29T04:01:13;102823.34;;;3.11;100.00
37202;BME280;37799;52.390;6.136;2023-01-29T04:03:41;102811.31;;;3.09;100.00
37202;BME280;37799;52.390;6.136;2023-01-29T04:06:16;102809.09;;;3.18;100.00
37202;BME280;37799;52.390;6.136;2023-01-29T04:08:48;102813.50;;;3.22;100.00
37202;BME280;37799;52.390;6.136;2023-01-29T04:11:17;102811.22;;;3.06;100.00
37202;BME280;37799;52.390;6.136;2023-01-29T04:13:45;102817.97;;;3.28;100.00
37202;BME280;37799;52.390;6.136;2023-01-29T04:16:22;102822.34;;;3.30;100.00
37202;BME280;37799;52.390;6.136;2023-01-29T04:18:50;102825.38;;;3.20;100.00
37202;BME280;37799;52.390;6.136;2023-01-29T04:21:17;102821.03;;;3.17;100.00
37202;BME280;37799;52.390;6.136;2023-01-29T04:23:43;102818.66;;;3.23;100.00
37202;BME280;37799;52.390;6.136;2023-01-29T04:31:23;102819.16;;;3.37;100.00
37202;BME280;37799;52.390;6.136;2023-01-29T04:33:57;102814.97;;;3.39;100.00
37202;BME280;37799;52.390;6.136;2023-01-29T04:39:31;102806.47;;;3.16;100.00
37202;BME280;37799;52.390;6.136;2023-01-29T04:42:18;102796.09;;;3.37;100.00
37202;BME280;37799;52.390;6.136;2023-01-29T04:45:35;102798.03;;;3.19;100.00
37202;BME280;37799;52.390;6.136;2023-01-29T04:50:40;102807.59;;;3.48;100.00
37202;BME280;37799;52.390;6.136;2023-01-29T04:53:13;102794.88;;;3.51;100.00
37202;BME280;37799;52.390;6.136;2023-01-29T04:55:53;102803.28;;;3.47;100.00
37202;BME280;37799;52.390;6.136;2023-01-29T04:58:30;102797.06;;;3.39;100.00
37202;BME280;37799;52.390;6.136;2023-01-29T05:00:57;102792.91;;;3.19;100.00
37202;BME280;37799;52.390;6.136;2023-01-29T05:03:24;102797.06;;;3.39;100.00
37202;BME280;37799;52.390;6.136;2023-01-29T05:05:51;102794.56;;;3.17;100.00
37202;BME280;37799;52.390;6.136;2023-01-29T05:08:20;102790.25;;;3.40;100.00
37202;BME280;37799;52.390;6.136;2023-01-29T05:10:48;102803.06;;;3.40;100.00
37202;BME280;37799;52.390;6.136;2023-01-29T05:13:15;102802.19;;;3.39;100.00
37202;BME280;37799;52.390;6.136;2023-01-29T05:15:56;102804.41;;;3.54;100.00
37202;BME280;37799;52.390;6.136;2023-01-29T05:18:24;102802.56;;;3.51;100.00
37202;BME280;37799;52.390;6.136;2023-01-29T05:20:50;102811.38;;;3.34;100.00
37202;BME280;37799;52.390;6.136;2023-01-29T05:23:18;102810.09;;;3.47;100.00
37202;BME280;37799;52.390;6.136;2023-01-29T05:25:44;102824.22;;;3.36;100.00
37202;BME280;37799;52.390;6.136;2023-01-29T05:28:10;102817.94;;;3.26;100.00
37202;BME280;37799;52.390;6.136;2023-01-29T05:30:42;102818.34;;;3.38;100.00
37202;BME280;37799;52.390;6.136;2023-01-29T05:35:37;102821.44;;;3.53;100.00
37202;BME280;37799;52.390;6.136;2023-01-29T05:38:02;102809.53;;;3.30;100.00
37202;BME280;37799;52.390;6.136;2023-01-29T05:40:27;102811.69;;;3.43;100.00
37202;BME280;37799;52.390;6.136;2023-01-29T05:42:53;102808.31;;;3.44;100.00
37202;BME280;37799;52.390;6.136;2023-01-29T05:45:19;102801.22;;;3.37;100.00
37202;BME280;37799;52.390;6.136;2023-01-29T05:47:45;102791.06;;;3.39;100.00
37202;BME280;37799;52.390;6.136;2023-01-29T05:50:11;102786.81;;;3.39;100.00
37202;BME280;37799;52.390;6.136;2023-01-29T05:52:37;102783.84;;;3.52;100.00
37202;BME280;37799;52.390;6.136;2023-01-29T05:55:02;102790.06;;;3.35;100.00
37202;BME280;37799;52.390;6.136;2023-01-29T05:57:28;102783.31;;;3.37;100.00
37202;BME280;37799;52.390;6.136;2023-01-29T05:59:53;102778.19;;;3.37;100.00
37202;BME280;37799;52.390;6.136;2023-01-29T06:02:18;102777.72;;;3.49;100.00
37202;BME280;37799;52.390;6.136;2023-01-29T06:04:45;102772.47;;;3.44;100.00
37202;BME280;37799;52.390;6.136;2023-01-29T06:07:10;102771.13;;;3.30;100.00
37202;BME280;37799;52.390;6.136;2023-01-29T06:09:35;102770.78;;;3.45;100.00
37202;BME280;37799;52.390;6.136;2023-01-29T06:12:00;102769.06;;;3.20;100.00
37202;BME280;37799;52.390;6.136;2023-01-29T06:14:26;102760.34;;;3.39;100.00
37202;BME280;37799;52.390;6.136;2023-01-29T06:16:51;102756.72;;;3.34;100.00
37202;BME280;37799;52.390;6.136;2023-01-29T06:19:17;102773.25;;;3.18;100.00
37202;BME280;37799;52.390;6.136;2023-01-29T06:21:42;102766.91;;;3.32;100.00
37202;BME280;37799;52.390;6.136;2023-01-29T06:24:07;102760.78;;;3.03;100.00
37202;BME280;37799;52.390;6.136;2023-01-29T06:26:33;102761.41;;;3.21;100.00
37202;BME280;37799;52.390;6.136;2023-01-29T06:28:58;102754.31;;;3.13;100.00
37202;BME280;37799;52.390;6.136;2023-01-29T06:31:23;102760.03;;;3.06;100.00
37202;BME280;37799;52.390;6.136;2023-01-29T06:33:49;102749.09;;;3.11;100.00
37202;BME280;37799;52.390;6.136;2023-01-29T06:36:14;102751.78;;;2.90;100.00
37202;BME280;37799;52.390;6.136;2023-01-29T06:38:39;102746.19;;;3.01;100.00
37202;BME280;37799;52.390;6.136;2023-01-29T06:41:10;102740.84;;;2.94;100.00
37202;BME280;37799;52.390;6.136;2023-01-29T06:43:36;102745.81;;;2.90;100.00
37202;BME280;37799;52.390;6.136;2023-01-29T06:46:01;102750.50;;;3.02;100.00
37202;BME280;37799;52.390;6.136;2023-01-29T06:48:26;102754.94;;;3.07;100.00
37202;BME280;37799;52.390;6.136;2023-01-29T06:50:52;102749.06;;;2.86;100.00
37202;BME280;37799;52.390;6.136;2023-01-29T06:53:20;102747.38;;;2.86;100.00
37202;BME280;37799;52.390;6.136;2023-01-29T06:55:52;102745.75;;;2.88;100.00
37202;BME280;37799;52.390;6.136;2023-01-29T06:58:18;102746.44;;;2.84;100.00
37202;BME280;37799;52.390;6.136;2023-01-29T07:00:44;102748.69;;;2.99;100.00
37202;BME280;37799;52.390;6.136;2023-01-29T07:03:09;102744.47;;;3.00;100.00
37202;BME280;37799;52.390;6.136;2023-01-29T07:05:35;102741.19;;;3.04;100.00
37202;BME280;37799;52.390;6.136;2023-01-29T07:08:01;102747.38;;;2.86;100.00
37202;BME280;37799;52.390;6.136;2023-01-29T07:10:26;102751.34;;;2.78;100.00
37202;BME280;37799;52.390;6.136;2023-01-29T07:12:51;102762.59;;;2.83;100.00
37202;BME280;37799;52.390;6.136;2023-01-29T07:15:17;102763.88;;;2.94;100.00
37202;BME280;37799;52.390;6.136;2023-01-29T07:17:58;102762.22;;;2.96;100.00
37202;BME280;37799;52.390;6.136;2023-01-29T07:20:25;102756.31;;;2.74;100.00
37202;BME280;37799;52.390;6.136;2023-01-29T07:22:50;102767.50;;;2.77;100.00
37202;BME280;37799;52.390;6.136;2023-01-29T07:25:16;102749.38;;;2.95;100.00
37202;BME280;37799;52.390;6.136;2023-01-29T07:27:41;102753.44;;;2.88;100.00
37202;BME280;37799;52.390;6.136;2023-01-29T07:30:07;102741.06;;;2.77;100.00
37202;BME280;37799;52.390;6.136;2023-01-29T07:32:32;102730.53;;;2.69;100.00
37202;BME280;37799;52.390;6.136;2023-01-29T07:34:57;102727.66;;;2.84;100.00
37202;BME280;37799;52.390;6.136;2023-01-29T07:37:23;102727.06;;;2.91;100.00
37202;BME280;37799;52.390;6.136;2023-01-29T07:39:48;102724.66;;;2.95;100.00
37202;BME280;37799;52.390;6.136;2023-01-29T07:42:14;102725.53;;;2.72;100.00
37202;BME280;37799;52.390;6.136;2023-01-29T07:44:39;102733.06;;;2.91;100.00
37202;BME280;37799;52.390;6.136;2023-01-29T07:47:04;102735.22;;;2.81;100.00
37202;BME280;37799;52.390;6.136;2023-01-29T07:49:29;102737.63;;;2.76;100.00
37202;BME280;37799;52.390;6.136;2023-01-29T07:51:55;102728.75;;;2.90;100.00
37202;BME280;37799;52.390;6.136;2023-01-29T07:54:20;102721.56;;;2.80;100.00
37202;BME280;37799;52.390;6.136;2023-01-29T07:56:45;102713.66;;;2.98;100.00
37202;BME280;37799;52.390;6.136;2023-01-29T07:59:10;102715.91;;;2.89;100.00
37202;BME280;37799;52.390;6.136;2023-01-29T08:01:36;102710.97;;;2.93;100.00
37202;BME280;37799;52.390;6.136;2023-01-29T08:04:01;102700.13;;;3.01;100.00
37202;BME280;37799;52.390;6.136;2023-01-29T08:06:26;102701.53;;;2.69;100.00
37202;BME280;37799;52.390;6.136;2023-01-29T08:08:52;102695.94;;;3.03;100.00
37202;BME280;37799;52.390;6.136;2023-01-29T08:11:19;102701.09;;;2.80;100.00
37202;BME280;37799;52.390;6.136;2023-01-29T08:13:45;102695.16;;;2.81;100.00
37202;BME280;37799;52.390;6.136;2023-01-29T08:16:10;102691.50;;;2.99;100.00
37202;BME280;37799;52.390;6.136;2023-01-29T08:18:36;102689.28;;;2.84;100.00
37202;BME280;37799;52.390;6.136;2023-01-29T08:21:02;102681.66;;;2.85;100.00
37202;BME280;37799;52.390;6.136;2023-01-29T08:23:28;102684.84;;;2.78;100.00
37202;BME280;37799;52.390;6.136;2023-01-29T08:25:54;102680.09;;;2.89;100.00
37202;BME280;37799;52.390;6.136;2023-01-29T08:28:19;102685.75;;;2.80;100.00
37202;BME280;37799;52.390;6.136;2023-01-29T08:30:44;102689.56;;;2.91;100.00
37202;BME280;37799;52.390;6.136;2023-01-29T08:33:10;102697.19;;;2.90;100.00
37202;BME280;37799;52.390;6.136;2023-01-29T08:35:35;102693.28;;;2.76;100.00
37202;BME280;37799;52.390;6.136;2023-01-29T08:38:02;102690.53;;;2.95;100.00
37202;BME280;37799;52.390;6.136;2023-01-29T08:40:30;102689.38;;;3.11;100.00
37202;BME280;37799;52.390;6.136;2023-01-29T08:42:57;102691.78;;;3.32;100.00
37202;BME280;37799;52.390;6.136;2023-01-29T08:45:23;102694.66;;;3.15;100.00
37202;BME280;37799;52.390;6.136;2023-01-29T08:47:48;102683.34;;;3.09;100.00
37202;BME280;37799;52.390;6.136;2023-01-29T08:50:15;102677.53;;;3.13;100.00
37202;BME280;37799;52.390;6.136;2023-01-29T08:52:41;102679.50;;;3.21;100.00
37202;BME280;37799;52.390;6.136;2023-01-29T08:55:07;102675.66;;;3.09;100.00
37202;BME280;37799;52.390;6.136;2023-01-29T08:57:32;102667.66;;;3.25;100.00
37202;BME280;37799;52.390;6.136;2023-01-29T08:59:57;102661.13;;;3.33;100.00
37202;BME280;37799;52.390;6.136;2023-01-29T09:02:23;102654.41;;;3.37;100.00
37202;BME280;37799;52.390;6.136;2023-01-29T09:04:48;102652.00;;;3.41;100.00
37202;BME280;37799;52.390;6.136;2023-01-29T09:07:13;102652.38;;;3.27;100.00
37202;BME280;37799;52.390;6.136;2023-01-29T09:09:39;102668.03;;;3.63;100.00
37202;BME280;37799;52.390;6.136;2023-01-29T09:12:04;102663.91;;;3.66;100.00
37202;BME280;37799;52.390;6.136;2023-01-29T09:14:30;102662.34;;;3.44;100.00
37202;BME280;37799;52.390;6.136;2023-01-29T09:16:56;102667.78;;;3.53;100.00
37202;BME280;37799;52.390;6.136;2023-01-29T09:19:22;102670.47;;;3.85;100.00
37202;BME280;37799;52.390;6.136;2023-01-29T09:21:47;102674.63;;;3.54;100.00
37202;BME280;37799;52.390;6.136;2023-01-29T09:24:13;102674.81;;;3.61;100.00
37202;BME280;37799;52.390;6.136;2023-01-29T09:26:39;102678.28;;;3.63;100.00
37202;BME280;37799;52.390;6.136;2023-01-29T09:29:04;102677.97;;;3.52;100.00
37202;BME280;37799;52.390;6.136;2023-01-29T09:31:30;102681.97;;;3.71;100.00
37202;BME280;37799;52.390;6.136;2023-01-29T09:33:55;102677.53;;;3.65;100.00
37202;BME280;37799;52.390;6.136;2023-01-29T09:36:21;102676.59;;;3.90;100.00
37202;BME280;37799;52.390;6.136;2023-01-29T09:38:46;102673.94;;;3.87;100.00
37202;BME280;37799;52.390;6.136;2023-01-29T09:41:42;102675.97;;;3.97;100.00
37202;BME280;37799;52.390;6.136;2023-01-29T09:44:32;102682.16;;;3.77;100.00
37202;BME280;37799;52.390;6.136;2023-01-29T09:47:03;102679.34;;;3.96;100.00
37202;BME280;37799;52.390;6.136;2023-01-29T09:49:34;102677.84;;;4.03;100.00
37202;BME280;37799;52.390;6.136;2023-01-29T09:52:07;102682.38;;;3.83;100.00
37202;BME280;37799;52.390;6.136;2023-01-29T09:57:09;102681.88;;;3.95;100.00
37202;BME280;37799;52.390;6.136;2023-01-29T09:59:39;102672.53;;;3.97;100.00
37202;BME280;37799;52.390;6.136;2023-01-29T10:02:09;102664.06;;;3.99;100.00
37202;BME280;37799;52.390;6.136;2023-01-29T10:07:36;102658.44;;;4.11;100.00
37202;BME280;37799;52.390;6.136;2023-01-29T10:10:18;102655.53;;;4.00;100.00
37202;BME280;37799;52.390;6.136;2023-01-29T10:15:33;102642.50;;;4.21;100.00
37202;BME280;37799;52.390;6.136;2023-01-29T10:23:23;102636.03;;;4.34;100.00
37202;BME280;37799;52.390;6.136;2023-01-29T10:25:51;102640.88;;;4.25;100.00
37202;BME280;37799;52.390;6.136;2023-01-29T10:28:43;102634.81;;;4.21;100.00
37202;BME280;37799;52.390;6.136;2023-01-29T10:31:39;102628.97;;;4.27;100.00
37202;BME280;37799;52.390;6.136;2023-01-29T10:34:26;102634.38;;;4.36;100.00
37202;BME280;37799;52.390;6.136;2023-01-29T10:36:54;102617.53;;;4.44;100.00
37202;BME280;37799;52.390;6.136;2023-01-29T10:39:22;102616.56;;;4.42;100.00
37202;BME280;37799;52.390;6.136;2023-01-29T10:42:18;102617.25;;;4.66;100.00
37202;BME280;37799;52.390;6.136;2023-01-29T10:45:05;102602.28;;;4.50;100.00
37202;BME280;37799;52.390;6.136;2023-01-29T10:47:46;102610.69;;;4.44;100.00
37202;BME280;37799;52.390;6.136;2023-01-29T10:53:29;102601.63;;;4.57;100.00
37202;BME280;37799;52.390;6.136;2023-01-29T11:01:00;102584.47;;;4.25;100.00
37202;BME280;37799;52.390;6.136;2023-01-29T11:03:31;102580.28;;;4.58;100.00
37202;BME280;37799;52.390;6.136;2023-01-29T11:06:31;102583.22;;;4.42;100.00
37202;BME280;37799;52.390;6.136;2023-01-29T11:11:45;102572.47;;;4.55;100.00
37202;BME280;37799;52.390;6.136;2023-01-29T11:14:20;102567.81;;;4.40;100.00
37202;BME280;37799;52.390;6.136;2023-01-29T11:16:47;102558.44;;;4.42;100.00
37202;BME280;37799;52.390;6.136;2023-01-29T11:19:13;102560.25;;;4.45;100.00
37202;BME280;37799;52.390;6.136;2023-01-29T11:21:56;102558.09;;;4.60;100.00
37202;BME280;37799;52.390;6.136;2023-01-29T11:24:22;102565.72;;;4.57;100.00
37202;BME280;37799;52.390;6.136;2023-01-29T11:26:49;102565.25;;;4.40;100.00
37202;BME280;37799;52.390;6.136;2023-01-29T11:29:38;102567.94;;;4.45;100.00
37202;BME280;37799;52.390;6.136;2023-01-29T11:32:06;102568.97;;;4.52;100.00
37202;BME280;37799;52.390;6.136;2023-01-29T11:35:05;102557.50;;;4.39;100.00
37202;BME280;37799;52.390;6.136;2023-01-29T11:37:42;102554.97;;;4.72;100.00
37202;BME280;37799;52.390;6.136;2023-01-29T11:40:32;102542.44;;;4.51;100.00
37202;BME280;37799;52.390;6.136;2023-01-29T11:43:20;102544.69;;;4.70;100.00
37202;BME280;37799;52.390;6.136;2023-01-29T11:45:48;102546.47;;;4.74;100.00
37202;BME280;37799;52.390;6.136;2023-01-29T11:48:15;102537.63;;;4.63;100.00
37202;BME280;37799;52.390;6.136;2023-01-29T11:50:42;102528.13;;;4.59;100.00
37202;BME280;37799;52.390;6.136;2023-01-29T11:53:26;102528.25;;;4.64;100.00
37202;BME280;37799;52.390;6.136;2023-01-29T11:55:56;102517.34;;;4.39;100.00
37202;BME280;37799;52.390;6.136;2023-01-29T11:58:28;102514.22;;;4.51;100.00
37202;BME280;37799;52.390;6.136;2023-01-29T12:00:56;102510.09;;;4.56;100.00
37202;BME280;37799;52.390;6.136;2023-01-29T12:03:33;102501.41;;;4.51;100.00
37202;BME280;37799;52.390;6.136;2023-01-29T12:06:04;102506.59;;;4.54;100.00
37202;BME280;37799;52.390;6.136;2023-01-29T12:08:40;102496.28;;;4.51;100.00
37202;BME280;37799;52.390;6.136;2023-01-29T12:11:17;102498.84;;;4.51;100.00
37202;BME280;37799;52.390;6.136;2023-01-29T12:13:52;102491.06;;;4.48;100.00
37202;BME280;37799;52.390;6.136;2023-01-29T12:16:39;102490.59;;;4.63;100.00
37202;BME280;37799;52.390;6.136;2023-01-29T12:19:13;102479.94;;;4.48;100.00
37202;BME280;37799;52.390;6.136;2023-01-29T12:21:47;102470.19;;;4.34;100.00
37202;BME280;37799;52.390;6.136;2023-01-29T12:24:34;102463.44;;;4.38;100.00
37202;BME280;37799;52.390;6.136;2023-01-29T12:27:11;102464.16;;;4.32;100.00
37202;BME280;37799;52.390;6.136;2023-01-29T12:32:43;102448.88;;;4.37;100.00
37202;BME280;37799;52.390;6.136;2023-01-29T12:35:25;102445.97;;;4.23;100.00
37202;BME280;37799;52.390;6.136;2023-01-29T12:38:17;102438.69;;;4.40;100.00
37202;BME280;37799;52.390;6.136;2023-01-29T12:40:47;102437.72;;;4.35;100.00
37202;BME280;37799;52.390;6.136;2023-01-29T12:43:17;102426.91;;;4.13;100.00
37202;BME280;37799;52.390;6.136;2023-01-29T12:45:45;102422.47;;;4.06;100.00
37202;BME280;37799;52.390;6.136;2023-01-29T12:48:18;102409.97;;;4.19;100.00
37202;BME280;37799;52.390;6.136;2023-01-29T12:50:45;102416.44;;;4.04;100.00
37202;BME280;37799;52.390;6.136;2023-01-29T12:53:27;102398.91;;;3.88;100.00
37202;BME280;37799;52.390;6.136;2023-01-29T12:56:02;102395.00;;;4.02;100.00
37202;BME280;37799;52.390;6.136;2023-01-29T12:58:34;102396.69;;;4.02;100.00
37202;BME280;37799;52.390;6.136;2023-01-29T13:01:16;102389.00;;;4.02;100.00
37202;BME280;37799;52.390;6.136;2023-01-29T13:03:57;102379.59;;;4.01;100.00
37202;BME280;37799;52.390;6.136;2023-01-29T13:06:29;102373.84;;;4.09;100.00
37202;BME280;37799;52.390;6.136;2023-01-29T13:09:03;102363.53;;;4.06;100.00
37202;BME280;37799;52.390;6.136;2023-01-29T13:11:40;102370.81;;;4.26;100.00
37202;BME280;37799;52.390;6.136;2023-01-29T13:14:22;102360.06;;;4.04;100.00
37202;BME280;37799;52.390;6.136;2023-01-29T13:17:01;102352.28;;;4.03;100.00
37202;BME280;37799;52.390;6.136;2023-01-29T13:19:35;102347.59;;;4.20;100.00
37202;BME280;37799;52.390;6.136;2023-01-29T13:22:03;102337.22;;;4.15;100.00
37202;BME280;37799;52.390;6.136;2023-01-29T13:24:38;102349.06;;;4.10;100.00
37202;BME280;37799;52.390;6.136;2023-01-29T13:27:05;102334.97;;;3.93;100.00
37202;BME280;37799;52.390;6.136;2023-01-29T13:29:31;102337.75;;;4.02;100.00
37202;BME280;37799;52.390;6.136;2023-01-29T13:32:02;102331.44;;;3.89;100.00
37202;BME280;37799;52.390;6.136;2023-01-29T13:34:30;102321.50;;;4.01;100.00
37202;BME280;37799;52.390;6.136;2023-01-29T13:36:59;102323.16;;;3.99;100.00
37202;BME280;37799;52.390;6.136;2023-01-29T13:39:29;102315.41;;;3.96;100.00
37202;BME280;37799;52.390;6.136;2023-01-29T13:41:57;102314.94;;;4.12;100.00
37202;BME280;37799;52.390;6.136;2023-01-29T13:44:34;102314.56;;;3.97;100.00
37202;BME280;37799;52.390;6.136;2023-01-29T13:47:07;102308.31;;;4.21;100.00
37202;BME280;37799;52.390;6.136;2023-01-29T13:49:46;102307.44;;;4.20;100.00
37202;BME280;37799;52.390;6.136;2023-01-29T13:55:00;102297.16;;;4.19;100.00
37202;BME280;37799;52.390;6.136;2023-01-29T13:57:48;102286.09;;;4.21;100.00
37202;BME280;37799;52.390;6.136;2023-01-29T14:02:47;102282.41;;;4.10;100.00
37202;BME280;37799;52.390;6.136;2023-01-29T14:05:43;102287.25;;;4.34;100.00
37202;BME280;37799;52.390;6.136;2023-01-29T14:10:36;102275.59;;;4.48;100.00
37202;BME280;37799;52.390;6.136;2023-01-29T14:15:36;102263.00;;;4.57;100.00
37202;BME280;37799;52.390;6.136;2023-01-29T14:18:18;102260.16;;;4.45;100.00
37202;BME280;37799;52.390;6.136;2023-01-29T14:25:57;102258.69;;;4.56;100.00